South Bay, Florida
Current Conditions -  °F | °C
As of 6:53 PM on Sunday 21 Dec 2014 (Local Time) from KPBI Reporting Station
Broken Clouds Broken Clouds  
Wind Chill: 74°   Ceiling: 12000
Heat Index: 74°   Visibility: 10mi
Dew Point: 63°   Wind: 5mph
Humidity: 68%   Direction: 140°SE
Pressure: 30.04"   Gusts: NA
Location:  26.66°N, 80.72°W
Report Text: KPBI 212353Z 14004KT 10SM BKN120 BKN230 23/17 A3004 RMK AO2 SLP171 T02330172 10278 20233 53006
Loading
Personal Weather Stations






























Interactive Weather Map New forecast layout! Learn more

10-Day Weather Forecast

Advertisements
Track Severe Weather on mobile